Time;durP1;ratioP1;P1;durP2;ratioP2;P2;SDS_P1;SDS_P2;PMS_P1;PMS_P2;Temp;Humidity;BMP_temperature;BMP_pressure;BME280_temperature;BME280_humidity;BME280_pressure;Samples;Min_cycle;Max_cycle;Signal;HPM_P1;HPM_P2
2022/02/05 00:01:54;;;;;;;3.17;1.10;;;1.30;99.90;;;;;;2096360;28;20168;-71
2022/02/05 00:03:11;;;;;;;1.63;1.27;;;1.20;99.90;;;;;;2093602;28;20585;-72
2022/02/05 00:04:14;;;;;;;2.60;1.30;;;1.20;99.90;;;;;;2093142;28;20183;-71
2022/02/05 00:05:18;;;;;;;2.67;1.13;;;1.20;99.90;;;;;;2096230;28;20183;-71
2022/02/05 00:06:22;;;;;;;1.33;1.17;;;1.30;99.90;;;;;;2097040;28;20176;-71
2022/02/05 00:07:25;;;;;;;3.75;1.20;;;1.30;99.90;;;;;;2097088;28;20191;-71
2022/02/05 00:10:00;;;;;;;2.63;1.60;;;1.30;99.90;;;;;;2096337;28;20190;-71
2022/02/05 00:14:31;;;;;;;2.27;1.23;;;1.10;99.90;;;;;;2096547;28;20226;-71
2022/02/05 00:15:44;;;;;;;2.45;1.50;;;1.10;99.90;;;;;;2096405;28;20159;-71
2022/02/05 00:20:19;;;;;;;1.15;1.00;;;1.10;99.90;;;;;;2096735;28;20175;-71
2022/02/05 00:39:45;;;;;;;1.83;1.10;;;1.20;99.90;;;;;;2097890;28;20270;-71
2022/02/05 00:42:53;;;;;;;1.33;1.17;;;1.30;99.90;;;;;;2098179;28;20182;-70
2022/02/05 00:43:57;;;;;;;1.88;1.08;;;1.20;99.90;;;;;;2098606;28;20179;-70
2022/02/05 00:45:04;;;;;;;1.80;1.20;;;1.00;99.90;;;;;;2097700;28;20194;-71
2022/02/05 00:46:07;;;;;;;1.92;1.10;;;1.00;99.90;;;;;;2082731;28;20178;-71
2022/02/05 00:47:07;;;;;;;1.50;1.25;;;0.90;99.90;;;;;;2090687;28;20180;-71
2022/02/05 00:48:09;;;;;;;1.50;1.03;;;0.90;99.90;;;;;;2097813;28;20535;-70
2022/02/05 00:49:10;;;;;;;3.33;1.33;;;1.00;99.90;;;;;;2089562;28;20180;-71
2022/02/05 00:50:17;;;;;;;1.30;1.13;;;1.00;99.90;;;;;;2089703;28;20270;-71
2022/02/05 00:51:33;;;;;;;4.25;1.20;;;1.00;99.90;;;;;;2097932;28;20647;-71
2022/02/05 00:52:35;;;;;;;1.15;1.00;;;1.10;99.90;;;;;;2097796;28;20164;-71
2022/02/05 00:53:38;;;;;;;1.63;1.10;;;1.20;99.90;;;;;;2097917;28;20258;-70
2022/02/05 00:54:41;;;;;;;2.83;1.20;;;1.10;99.90;;;;;;2098384;28;20176;-71
2022/02/05 00:55:50;;;;;;;1.63;1.23;;;1.10;99.90;;;;;;2097719;28;20183;-71
2022/02/05 00:58:12;;;;;;;1.25;1.00;;;1.20;99.90;;;;;;2072586;28;20251;-71
2022/02/05 00:59:18;;;;;;;1.23;1.03;;;1.10;99.90;;;;;;2090725;28;20612;-70
2022/02/05 01:00:20;;;;;;;2.63;1.30;;;1.00;99.90;;;;;;2081788;28;20614;-71
2022/02/05 01:01:20;;;;;;;1.20;1.10;;;1.00;99.90;;;;;;2081537;28;20193;-72
2022/02/05 01:02:22;;;;;;;3.20;1.60;;;1.00;99.90;;;;;;2097797;28;20203;-71
2022/02/05 01:03:23;;;;;;;1.60;1.40;;;1.00;99.90;;;;;;2097763;28;20183;-70
2022/02/05 01:04:24;;;;;;;1.97;1.10;;;1.10;99.90;;;;;;2089625;28;20199;-71
2022/02/05 01:05:25;;;;;;;5.13;1.33;;;1.10;99.90;;;;;;2097699;28;20309;-71
2022/02/05 01:06:26;;;;;;;2.55;1.20;;;1.00;99.90;;;;;;2097772;28;20180;-70
2022/02/05 01:07:26;;;;;;;1.97;1.33;;;1.00;99.90;;;;;;2089470;28;20187;-71
2022/02/05 01:08:28;;;;;;;3.90;1.40;;;1.00;99.90;;;;;;2097717;28;20619;-71
2022/02/05 01:09:29;;;;;;;2.60;1.65;;;1.00;99.90;;;;;;2097771;28;20671;-71
2022/02/05 01:10:30;;;;;;;2.03;1.20;;;0.90;99.90;;;;;;2097792;28;20187;-71
2022/02/05 01:11:31;;;;;;;2.38;1.30;;;0.90;99.90;;;;;;2097786;28;20548;-71
2022/02/05 01:12:34;;;;;;;2.60;1.47;;;1.00;99.90;;;;;;2097589;28;20212;-71
2022/02/05 01:13:36;;;;;;;2.55;1.50;;;0.90;99.90;;;;;;2097743;28;20688;-71
2022/02/05 01:14:46;;;;;;;1.30;1.10;;;0.90;99.90;;;;;;2097572;28;20649;-70
2022/02/05 01:15:57;;;;;;;3.00;1.33;;;0.80;99.90;;;;;;2097623;28;20183;-69
2022/02/05 01:17:04;;;;;;;1.13;0.98;;;0.70;99.90;;;;;;2092183;28;20197;-69
2022/02/05 01:18:07;;;;;;;2.33;1.20;;;0.70;99.90;;;;;;2097805;28;20176;-70
2022/02/05 01:19:14;;;;;;;1.90;1.40;;;0.70;99.90;;;;;;2097592;28;20183;-69
2022/02/05 01:21:40;;;;;;;2.65;1.40;;;0.70;99.90;;;;;;2097837;28;20163;-70
2022/02/05 01:22:42;;;;;;;2.53;1.25;;;0.70;99.90;;;;;;2097580;28;20168;-70
2022/02/05 01:23:52;;;;;;;2.75;1.27;;;0.70;99.90;;;;;;2089625;28;20669;-70
2022/02/05 01:24:54;;;;;;;2.83;1.58;;;0.70;99.90;;;;;;2090292;28;20168;-70
2022/02/05 01:26:05;;;;;;;1.52;1.30;;;0.60;99.90;;;;;;2097633;28;20627;-69
2022/02/05 01:27:11;;;;;;;4.45;1.98;;;0.60;99.90;;;;;;2097581;28;20222;-69
2022/02/05 01:28:20;;;;;;;2.35;1.45;;;0.50;99.90;;;;;;2097758;28;20163;-69
2022/02/05 01:30:44;;;;;;;3.13;1.30;;;0.50;99.90;;;;;;2087108;28;20173;-69
2022/02/05 01:31:50;;;;;;;1.52;1.30;;;0.50;99.90;;;;;;2092478;28;20172;-69
2022/02/05 01:33:10;;;;;;;2.45;1.50;;;0.50;99.90;;;;;;2097587;28;20164;-69
2022/02/05 01:34:19;;;;;;;1.75;1.30;;;0.50;99.90;;;;;;2097631;28;20179;-71
2022/02/05 01:35:26;;;;;;;3.05;1.40;;;0.40;99.90;;;;;;2097791;28;20262;-72
2022/02/05 01:39:22;;;;;;;3.97;1.50;;;0.40;99.90;;;;;;2098417;28;20697;-71
2022/02/05 01:53:22;;;;;;;3.30;1.65;;;0.10;99.90;;;;;;2090464;28;20624;-69
2022/02/05 01:56:45;;;;;;;1.98;1.60;;;0.20;99.90;;;;;;2097704;28;20709;-71
2022/02/05 01:58:15;;;;;;;4.03;1.45;;;0.30;99.90;;;;;;2091492;28;20546;-71
2022/02/05 01:59:25;;;;;;;2.58;1.50;;;0.30;99.90;;;;;;2097844;28;20184;-71
2022/02/05 02:05:53;;;;;;;2.67;1.58;;;0.20;99.90;;;;;;2097618;28;20203;-71
2022/02/05 02:11:41;;;;;;;2.28;1.77;;;0.20;99.90;;;;;;2097422;28;20175;-70
2022/02/05 02:12:52;;;;;;;2.10;1.40;;;0.10;99.90;;;;;;2092100;28;20183;-71
2022/02/05 02:15:20;;;;;;;4.57;1.52;;;0.10;99.90;;;;;;2097179;28;20247;-70
2022/02/05 02:19:02;;;;;;;3.67;1.45;;;0.20;99.90;;;;;;2092196;28;20660;-70
2022/02/05 02:23:23;;;;;;;1.87;1.60;;;0.20;99.90;;;;;;2088961;28;20649;-70
2022/02/05 02:24:39;;;;;;;4.00;1.60;;;0.20;99.90;;;;;;2097181;28;20636;-70
2022/02/05 02:28:28;;;;;;;3.37;1.37;;;0.10;99.90;;;;;;2097505;28;20211;-71
2022/02/05 02:29:41;;;;;;;2.50;1.38;;;0.10;99.90;;;;;;2096260;28;20183;-70
2022/02/05 02:30:53;;;;;;;3.20;2.03;;;0.10;99.90;;;;;;2097501;28;20666;-70
2022/02/05 02:31:55;;;;;;;2.30;1.60;;;0.10;99.90;;;;;;2097709;28;20577;-70
2022/02/05 02:33:06;;;;;;;2.63;1.63;;;0.00;99.90;;;;;;2096781;28;20676;-70
2022/02/05 02:34:11;;;;;;;2.38;1.50;;;0.00;99.90;;;;;;2097089;28;20175;-70
2022/02/05 02:35:18;;;;;;;2.83;1.63;;;0.00;99.90;;;;;;2097419;28;20270;-70
2022/02/05 02:36:47;;;;;;;3.72;1.60;;;0.00;99.90;;;;;;2097689;28;20164;-71
2022/02/05 02:38:56;;;;;;;7.22;2.05;;;-0.10;99.90;;;;;;2097608;28;20178;-70
2022/02/05 02:40:07;;;;;;;1.75;1.27;;;0.00;99.90;;;;;;2097573;28;20163;-70
2022/02/05 02:41:16;;;;;;;3.90;2.15;;;0.00;99.90;;;;;;2096941;28;20238;-70
2022/02/05 02:42:18;;;;;;;3.67;1.92;;;0.00;99.90;;;;;;2091096;28;20199;-70
2022/02/05 02:43:24;;;;;;;5.78;2.17;;;0.00;99.90;;;;;;2096831;28;20257;-70
2022/02/05 02:44:25;;;;;;;4.38;1.63;;;0.00;99.90;;;;;;2096770;28;20164;-70
2022/02/05 02:45:25;;;;;;;2.57;1.53;;;0.00;99.90;;;;;;2096884;28;20180;-70
2022/02/05 02:46:26;;;;;;;2.63;1.73;;;0.00;99.90;;;;;;2097555;28;20172;-70
2022/02/05 02:47:27;;;;;;;2.87;1.70;;;0.00;99.90;;;;;;2096958;28;20179;-70
2022/02/05 02:48:28;;;;;;;6.60;1.73;;;0.00;99.90;;;;;;2096883;28;20637;-70
2022/02/05 02:56:29;;;;;;;4.38;1.80;;;0.10;99.90;;;;;;2089533;28;20223;-70
2022/02/05 02:58:17;;;;;;;2.13;1.83;;;-0.30;99.90;;;;;;2097416;28;20195;-70
2022/02/05 02:59:54;;;;;;;3.47;1.70;;;-0.30;99.90;;;;;;2097390;28;20246;-70
2022/02/05 03:00:45;;;;;;;4.80;1.80;;;-0.30;99.90;;;;;;2091393;28;20199;-70
2022/02/05 03:01:46;;;;;;;3.57;1.70;;;-0.40;99.90;;;;;;2096712;28;20179;-70
2022/02/05 03:02:46;;;;;;;3.97;1.98;;;-0.50;99.90;;;;;;2097377;28;20186;-70
2022/02/05 03:03:47;;;;;;;3.77;1.90;;;-0.50;99.90;;;;;;2097499;28;20708;-70
2022/02/05 03:04:49;;;;;;;4.27;2.20;;;-0.50;99.90;;;;;;2096445;28;20711;-70
2022/02/05 03:05:49;;;;;;;5.40;3.22;;;-0.60;99.90;;;;;;2088433;28;20584;-70
2022/02/05 03:06:50;;;;;;;3.23;2.13;;;-0.70;99.90;;;;;;2096788;28;20197;-70
2022/02/05 03:07:51;;;;;;;3.73;2.10;;;-0.70;99.90;;;;;;2088339;28;20184;-70
2022/02/05 03:08:51;;;;;;;5.43;2.40;;;-0.70;99.90;;;;;;2080157;28;20181;-70
2022/02/05 03:09:55;;;;;;;4.30;2.50;;;-0.70;99.90;;;;;;2096848;28;20186;-70
2022/02/05 03:10:55;;;;;;;4.22;2.05;;;-0.80;99.90;;;;;;2096656;28;20183;-70
2022/02/05 03:11:56;;;;;;;3.20;1.93;;;-0.80;99.90;;;;;;2088572;28;20567;-70
2022/02/05 03:12:57;;;;;;;5.03;2.27;;;-0.90;99.90;;;;;;2096813;28;20671;-71
2022/02/05 03:13:57;;;;;;;3.13;1.83;;;-0.90;99.90;;;;;;2096843;28;20180;-70
2022/02/05 03:14:58;;;;;;;4.53;2.17;;;-0.90;99.90;;;;;;2088318;28;20554;-70
2022/02/05 03:15:59;;;;;;;4.57;2.20;;;-0.90;99.90;;;;;;2096694;28;20905;-70
2022/02/05 03:17:16;;;;;;;5.57;2.10;;;-1.00;99.90;;;;;;2096721;28;20333;-70
2022/02/05 03:18:29;;;;;;;5.32;1.75;;;-1.00;99.90;;;;;;2096965;28;20156;-70
2022/02/05 03:19:31;;;;;;;3.78;2.13;;;-1.00;99.90;;;;;;2096481;28;20195;-70
2022/02/05 03:20:32;;;;;;;2.45;1.67;;;-1.00;99.90;;;;;;2096671;28;20237;-70
2022/02/05 03:21:33;;;;;;;3.40;2.22;;;-1.00;99.90;;;;;;2096415;28;20192;-70
2022/02/05 03:22:33;;;;;;;7.20;2.40;;;-1.10;99.90;;;;;;2088376;28;20201;-70
2022/02/05 03:23:34;;;;;;;7.80;2.00;;;-1.10;99.90;;;;;;2088329;28;20249;-70
2022/02/05 03:24:35;;;;;;;3.30;2.00;;;-1.10;99.90;;;;;;2096581;28;20178;-70
2022/02/05 03:25:35;;;;;;;3.93;2.40;;;-1.10;99.90;;;;;;2096598;28;20201;-70
2022/02/05 03:26:37;;;;;;;4.27;2.30;;;-1.10;99.90;;;;;;2096573;28;20179;-70
2022/02/05 03:27:38;;;;;;;5.18;2.50;;;-1.10;99.90;;;;;;2096704;28;20217;-70
2022/02/05 03:28:39;;;;;;;2.83;2.13;;;-1.10;99.90;;;;;;2096763;28;20752;-70
2022/02/05 03:29:44;;;;;;;4.10;2.17;;;-1.20;99.90;;;;;;2097248;28;20206;-70
2022/02/05 03:30:45;;;;;;;5.03;2.08;;;-1.20;99.90;;;;;;2088441;28;20614;-70
2022/02/05 03:31:45;;;;;;;3.70;2.13;;;-1.20;99.90;;;;;;2088692;28;20213;-70
2022/02/05 03:32:46;;;;;;;4.27;2.50;;;-1.30;99.90;;;;;;2096596;28;20187;-70
2022/02/05 03:33:47;;;;;;;3.70;2.40;;;-1.20;99.90;;;;;;2096476;28;20188;-70
2022/02/05 03:34:48;;;;;;;3.20;2.00;;;-1.30;99.90;;;;;;2096518;28;20185;-70
2022/02/05 03:35:49;;;;;;;6.75;1.70;;;-1.40;99.90;;;;;;2088335;28;20196;-70
2022/02/05 03:36:50;;;;;;;6.17;2.60;;;-1.30;99.90;;;;;;2096680;28;20190;-70
2022/02/05 03:37:50;;;;;;;3.47;2.03;;;-1.30;99.90;;;;;;2088161;28;20184;-70
2022/02/05 03:38:51;;;;;;;3.30;2.03;;;-1.40;99.90;;;;;;2088248;28;20314;-70
2022/02/05 03:39:52;;;;;;;4.37;2.07;;;-1.30;99.90;;;;;;2096507;28;20180;-70
2022/02/05 03:40:52;;;;;;;5.47;2.40;;;-1.40;99.90;;;;;;2096635;28;20548;-70
2022/02/05 03:41:53;;;;;;;5.63;2.50;;;-1.30;99.90;;;;;;2096487;28;20205;-70
2022/02/05 03:42:54;;;;;;;6.13;2.83;;;-1.40;99.90;;;;;;2088185;28;20245;-70
2022/02/05 03:43:54;;;;;;;6.30;2.43;;;-1.40;99.90;;;;;;2088275;28;20248;-70
2022/02/05 03:44:55;;;;;;;3.20;1.97;;;-1.40;99.90;;;;;;2088226;28;20189;-70
2022/02/05 03:45:56;;;;;;;5.43;2.60;;;-1.40;99.90;;;;;;2088159;28;20652;-70
2022/02/05 03:46:57;;;;;;;3.00;2.13;;;-1.40;99.90;;;;;;2096704;28;20202;-70
2022/02/05 03:47:57;;;;;;;5.37;2.27;;;-1.50;99.90;;;;;;2094307;28;20761;-70
2022/02/05 03:48:58;;;;;;;4.90;2.57;;;-1.50;99.90;;;;;;2086075;28;20184;-70
2022/02/05 03:50:02;;;;;;;3.27;2.03;;;-1.50;99.90;;;;;;2096453;28;20200;-70
2022/02/05 03:51:04;;;;;;;3.95;2.08;;;-1.50;99.90;;;;;;2104961;28;20173;-70
2022/02/05 03:52:05;;;;;;;7.65;2.83;;;-1.50;99.90;;;;;;2096789;28;20248;-70
2022/02/05 03:53:06;;;;;;;4.60;2.07;;;-1.50;99.90;;;;;;2096491;28;20579;-70
2022/02/05 03:54:07;;;;;;;4.85;1.88;;;-1.60;99.90;;;;;;2096658;28;20622;-70
2022/02/05 03:55:08;;;;;;;8.77;2.17;;;-1.60;99.90;;;;;;2096340;28;20201;-70
2022/02/05 03:56:09;;;;;;;3.33;2.15;;;-1.50;99.90;;;;;;2088370;28;20585;-70
2022/02/05 03:57:10;;;;;;;6.23;2.60;;;-1.60;99.90;;;;;;2105124;28;20198;-70
2022/02/05 03:58:10;;;;;;;6.23;2.67;;;-1.60;99.90;;;;;;2113265;28;20427;-70
2022/02/05 03:59:11;;;;;;;6.97;2.37;;;-1.60;99.90;;;;;;2113219;28;20180;-70
2022/02/05 04:00:12;;;;;;;5.23;1.80;;;-1.60;99.90;;;;;;2104853;28;20252;-70
2022/02/05 04:01:14;;;;;;;6.60;2.33;;;-1.60;99.90;;;;;;2104882;28;20271;-70
2022/02/05 04:02:15;;;;;;;4.95;2.33;;;-1.60;99.90;;;;;;2096363;28;20204;-70
2022/02/05 04:03:15;;;;;;;4.50;2.20;;;-1.60;99.90;;;;;;2096573;28;20202;-70
2022/02/05 04:04:16;;;;;;;7.40;2.30;;;-1.70;99.90;;;;;;2105532;28;20182;-70
2022/02/05 04:05:17;;;;;;;4.33;2.53;;;-1.70;99.90;;;;;;2104757;28;20191;-70
2022/02/05 04:06:18;;;;;;;3.20;2.30;;;-1.70;99.90;;;;;;2104887;28;20253;-70
2022/02/05 04:07:19;;;;;;;4.03;2.07;;;-1.70;99.90;;;;;;2104992;28;20202;-70
2022/02/05 04:08:20;;;;;;;3.83;1.85;;;-1.70;99.90;;;;;;2104861;28;20254;-70
2022/02/05 04:09:26;;;;;;;6.97;2.30;;;-1.70;99.90;;;;;;2103969;28;20199;-70
2022/02/05 04:10:30;;;;;;;7.20;2.92;;;-1.70;99.90;;;;;;2088284;28;20652;-70
2022/02/05 04:11:36;;;;;;;8.15;3.15;;;-1.60;99.90;;;;;;2096592;28;20767;-69
2022/02/05 04:16:36;;;;;;;3.70;2.33;;;-1.70;99.90;;;;;;2098657;28;20199;-70
2022/02/05 04:17:36;;;;;;;2.83;2.03;;;-1.80;99.90;;;;;;2098859;28;20186;-70
2022/02/05 04:18:37;;;;;;;8.17;2.60;;;-1.90;99.90;;;;;;2098234;28;20230;-70
2022/02/05 04:19:38;;;;;;;4.13;2.30;;;-1.90;99.90;;;;;;2098146;28;20180;-70
2022/02/05 04:20:39;;;;;;;3.67;1.97;;;-1.90;99.90;;;;;;2098432;28;20671;-70
2022/02/05 04:21:39;;;;;;;7.80;2.20;;;-1.90;99.90;;;;;;2089735;28;20269;-70
2022/02/05 04:22:40;;;;;;;7.37;3.17;;;-1.90;99.90;;;;;;2081856;28;20275;-70
2022/02/05 04:23:41;;;;;;;4.30;2.10;;;-1.90;99.90;;;;;;2089886;28;20183;-70
2022/02/05 04:24:42;;;;;;;4.07;2.35;;;-1.90;99.90;;;;;;2089692;28;20183;-69
2022/02/05 04:25:43;;;;;;;3.07;2.00;;;-1.90;99.90;;;;;;2098081;28;20632;-70
2022/02/05 04:26:44;;;;;;;6.10;2.05;;;-1.90;99.90;;;;;;2098053;28;20183;-70
2022/02/05 04:27:45;;;;;;;3.70;1.83;;;-1.90;99.90;;;;;;2089892;28;20273;-70
2022/02/05 04:28:46;;;;;;;5.33;2.50;;;-1.90;99.90;;;;;;2098138;28;20174;-69
2022/02/05 04:29:46;;;;;;;3.47;2.10;;;-1.80;99.90;;;;;;2098066;28;20182;-70
2022/02/05 04:30:47;;;;;;;3.30;1.67;;;-1.80;99.90;;;;;;2098197;28;20179;-70
2022/02/05 04:31:48;;;;;;;4.97;2.30;;;-1.90;99.90;;;;;;2098084;28;20182;-70
2022/02/05 04:32:49;;;;;;;4.70;2.00;;;-1.80;99.90;;;;;;2090152;28;20186;-70
2022/02/05 04:33:50;;;;;;;3.40;1.88;;;-1.80;99.90;;;;;;2097991;28;20183;-70
2022/02/05 04:34:51;;;;;;;5.83;2.30;;;-1.80;99.90;;;;;;2098012;28;20191;-70
2022/02/05 04:35:51;;;;;;;4.50;2.10;;;-1.80;99.90;;;;;;2089662;28;20195;-70
2022/02/05 04:36:52;;;;;;;4.47;2.30;;;-1.80;99.90;;;;;;2089739;28;20239;-70
2022/02/05 04:37:56;;;;;;;6.20;2.57;;;-1.80;99.90;;;;;;2089735;28;20190;-70
2022/02/05 04:39:01;;;;;;;7.43;2.10;;;-1.90;99.90;;;;;;2097911;28;20937;-70
2022/02/05 04:41:24;;;;;;;9.40;2.13;;;-2.00;99.90;;;;;;2098151;28;20213;-70
2022/02/05 04:42:36;;;;;;;3.45;2.00;;;-2.00;99.90;;;;;;2092485;28;20201;-70
2022/02/05 04:45:15;;;;;;;3.13;2.00;;;-2.00;99.90;;;;;;2098591;28;20204;-70
2022/02/05 04:50:02;;;;;;;3.38;1.88;;;-2.10;99.90;;;;;;2098511;28;20165;-70
2022/02/05 04:53:55;;;;;;;3.67;2.13;;;-2.10;99.90;;;;;;2098585;28;20170;-70
2022/02/05 04:56:42;;;;;;;13.85;2.70;;;-2.00;99.90;;;;;;2064646;28;20200;-70
2022/02/05 04:58:03;;;;;;;4.72;1.60;;;-2.00;99.90;;;;;;2069969;28;20176;-70
2022/02/05 04:59:23;;;;;;;3.83;2.20;;;-2.00;99.90;;;;;;2097889;28;20163;-70
2022/02/05 05:04:25;;;;;;;5.30;1.75;;;-1.90;99.90;;;;;;2098086;28;20173;-70
2022/02/05 05:06:01;;;;;;;4.07;1.55;;;-2.00;99.90;;;;;;2094971;28;20702;-70
2022/02/05 05:08:42;;;;;;;3.20;2.10;;;-1.90;99.90;;;;;;2098460;28;20641;-70
2022/02/05 05:11:18;;;;;;;4.27;2.27;;;-1.90;99.90;;;;;;2098433;28;20190;-70
2022/02/05 05:13:38;;;;;;;2.25;1.63;;;-1.90;99.90;;;;;;2098227;28;20223;-70
2022/02/05 05:19:47;;;;;;;3.95;1.80;;;-1.90;99.90;;;;;;2098226;28;20252;-70
2022/02/05 05:20:47;;;;;;;2.70;1.77;;;-1.90;99.90;;;;;;2097730;28;20167;-70
2022/02/05 05:21:48;;;;;;;4.27;1.50;;;-1.90;99.90;;;;;;2097674;28;20693;-70
2022/02/05 05:22:49;;;;;;;3.30;1.60;;;-1.90;99.90;;;;;;2097762;28;20256;-70
2022/02/05 05:23:49;;;;;;;4.60;1.30;;;-1.90;99.90;;;;;;2088992;28;20192;-70
2022/02/05 05:24:50;;;;;;;3.93;1.73;;;-1.90;99.90;;;;;;2088974;28;20193;-70
2022/02/05 05:25:51;;;;;;;9.67;2.70;;;-1.90;99.90;;;;;;2081044;28;20210;-69
2022/02/05 05:26:52;;;;;;;3.00;1.90;;;-1.90;99.90;;;;;;2097622;28;20275;-70
2022/02/05 05:27:53;;;;;;;2.67;1.58;;;-1.80;99.90;;;;;;2089336;28;20267;-70
2022/02/05 05:28:53;;;;;;;2.17;1.40;;;-1.80;99.90;;;;;;2089318;28;20180;-70
2022/02/05 05:29:54;;;;;;;4.13;1.93;;;-1.80;99.90;;;;;;2097545;28;20189;-70
2022/02/05 05:30:55;;;;;;;2.40;1.30;;;-1.90;99.90;;;;;;2097618;28;20186;-70
2022/02/05 05:31:55;;;;;;;4.30;1.47;;;-1.90;99.90;;;;;;2098266;28;20213;-70
2022/02/05 05:32:56;;;;;;;1.87;1.70;;;-1.90;99.90;;;;;;2098265;28;20178;-70
2022/02/05 05:33:57;;;;;;;5.03;1.50;;;-1.80;99.90;;;;;;2097634;28;20842;-70
2022/02/05 05:34:57;;;;;;;3.07;1.50;;;-1.80;99.90;;;;;;2097534;28;20178;-69
2022/02/05 05:35:58;;;;;;;4.20;1.60;;;-1.90;99.90;;;;;;2098099;28;20217;-70
2022/02/05 05:37:00;;;;;;;3.13;1.73;;;-1.90;99.90;;;;;;2097723;28;20222;-70
2022/02/05 05:38:03;;;;;;;2.92;1.65;;;-1.90;99.90;;;;;;2097594;28;20201;-70
2022/02/05 05:39:04;;;;;;;2.50;1.60;;;-1.90;99.90;;;;;;2098098;28;20186;-70
2022/02/05 05:40:07;;;;;;;2.20;1.60;;;-1.90;99.90;;;;;;2089150;28;20595;-69
2022/02/05 05:41:09;;;;;;;2.08;1.45;;;-1.90;99.90;;;;;;2081793;28;20688;-70
2022/02/05 05:42:14;;;;;;;5.00;1.60;;;-2.00;99.90;;;;;;2097863;28;20225;-69
2022/02/05 05:43:26;;;;;;;2.75;1.40;;;-1.90;99.90;;;;;;2098339;28;20194;-70
2022/02/05 05:45:50;;;;;;;2.60;1.33;;;-1.90;99.90;;;;;;2097675;28;20192;-70
2022/02/05 05:47:03;;;;;;;2.10;1.35;;;-1.90;99.90;;;;;;2097576;28;20190;-70
2022/02/05 05:48:11;;;;;;;2.50;1.45;;;-2.00;99.90;;;;;;2097853;28;20184;-70
2022/02/05 05:49:15;;;;;;;3.42;1.40;;;-2.00;99.90;;;;;;2089256;28;20162;-70
2022/02/05 05:51:36;;;;;;;1.98;1.20;;;-2.00;99.90;;;;;;2097557;28;20169;-70
2022/02/05 05:52:37;;;;;;;3.95;1.15;;;-2.00;99.90;;;;;;2097901;28;20269;-70
2022/02/05 05:53:38;;;;;;;1.87;1.27;;;-2.00;99.90;;;;;;2097667;28;20179;-70
2022/02/05 05:54:38;;;;;;;8.77;2.10;;;-1.90;99.90;;;;;;2089229;28;20418;-69
2022/02/05 05:55:45;;;;;;;2.30;1.43;;;-1.90;99.90;;;;;;2097551;28;20196;-70
2022/02/05 05:56:46;;;;;;;2.75;1.17;;;-1.90;99.90;;;;;;2097416;28;20192;-69
2022/02/05 05:57:47;;;;;;;2.60;1.27;;;-2.00;99.90;;;;;;2089139;28;20187;-70
2022/02/05 05:58:48;;;;;;;2.57;1.20;;;-2.00;99.90;;;;;;2089351;28;20179;-70
2022/02/05 05:59:49;;;;;;;1.23;0.90;;;-2.00;99.90;;;;;;2097376;28;20189;-70
2022/02/05 06:00:50;;;;;;;2.77;1.10;;;-2.00;99.90;;;;;;2097358;28;20272;-69
2022/02/05 06:01:51;;;;;;;3.67;1.45;;;-2.00;99.90;;;;;;2097520;28;20212;-70
2022/02/05 06:02:51;;;;;;;2.40;1.20;;;-2.00;99.90;;;;;;2088976;28;20620;-69
2022/02/05 06:03:52;;;;;;;2.97;1.60;;;-2.00;99.90;;;;;;2081036;28;20184;-70
2022/02/05 06:04:53;;;;;;;2.10;1.20;;;-2.00;99.90;;;;;;2089038;28;20179;-70
2022/02/05 06:05:53;;;;;;;1.90;1.20;;;-2.00;99.90;;;;;;2089113;28;20217;-70
2022/02/05 06:06:54;;;;;;;1.50;1.20;;;-2.00;99.90;;;;;;2097541;28;20186;-70
2022/02/05 06:07:55;;;;;;;1.57;1.40;;;-2.10;99.90;;;;;;2097561;28;20188;-70
2022/02/05 06:08:55;;;;;;;2.33;1.40;;;-2.10;99.90;;;;;;2096812;28;20628;-70
2022/02/05 06:09:56;;;;;;;2.30;1.33;;;-2.20;99.90;;;;;;2097476;28;20168;-70
2022/02/05 06:10:57;;;;;;;5.53;2.33;;;-2.20;99.90;;;;;;2097329;28;20206;-70
2022/02/05 06:11:57;;;;;;;2.63;1.50;;;-2.20;99.90;;;;;;2097262;28;20277;-70
2022/02/05 06:12:58;;;;;;;3.93;1.87;;;-2.20;99.90;;;;;;2098001;28;20198;-70
2022/02/05 06:13:59;;;;;;;3.80;1.53;;;-2.10;99.90;;;;;;2097269;28;20204;-70
2022/02/05 06:15:03;;;;;;;1.77;1.27;;;-2.10;99.90;;;;;;2097299;28;20189;-70
2022/02/05 06:16:08;;;;;;;5.43;1.30;;;-2.10;99.90;;;;;;2098019;28;20183;-69
2022/02/05 06:17:11;;;;;;;3.08;1.10;;;-2.10;99.90;;;;;;2098007;28;20257;-70
2022/02/05 06:18:11;;;;;;;3.47;1.33;;;-2.10;99.90;;;;;;2097408;28;20245;-70
2022/02/05 06:19:14;;;;;;;2.73;1.27;;;-2.10;99.90;;;;;;2097274;28;20219;-70
2022/02/05 06:20:14;;;;;;;2.15;1.30;;;-2.10;99.90;;;;;;2097963;28;20175;-69
2022/02/05 06:21:15;;;;;;;2.27;1.80;;;-2.10;99.90;;;;;;2097969;28;20187;-70
2022/02/05 06:22:16;;;;;;;3.50;2.13;;;-2.00;99.90;;;;;;2097239;28;20708;-70
2022/02/05 06:23:16;;;;;;;3.47;2.20;;;-2.10;99.90;;;;;;2097089;28;20559;-70
2022/02/05 06:24:17;;;;;;;5.23;2.43;;;-2.20;99.90;;;;;;2088753;28;20191;-70
2022/02/05 06:25:18;;;;;;;7.67;2.67;;;-2.20;99.90;;;;;;2080829;28;20184;-70
2022/02/05 06:26:18;;;;;;;5.17;3.20;;;-2.20;99.90;;;;;;2088913;28;20377;-70
2022/02/05 06:27:19;;;;;;;6.40;3.57;;;-2.30;99.90;;;;;;2089014;28;20194;-69
2022/02/05 06:28:20;;;;;;;6.10;3.37;;;-2.30;99.90;;;;;;2097304;28;20191;-69
2022/02/05 06:29:20;;;;;;;6.23;3.30;;;-2.20;99.90;;;;;;2097800;28;20193;-69
2022/02/05 06:30:21;;;;;;;4.43;3.33;;;-2.30;99.90;;;;;;2097721;28;20178;-69
2022/02/05 06:31:22;;;;;;;4.90;3.50;;;-2.30;99.90;;;;;;2097336;28;20560;-70
2022/02/05 06:32:22;;;;;;;12.40;3.70;;;-2.20;99.90;;;;;;2097372;28;20198;-70
2022/02/05 06:33:23;;;;;;;9.23;4.07;;;-2.30;99.90;;;;;;2097848;28;20193;-70
2022/02/05 06:34:24;;;;;;;3.73;2.30;;;-2.30;99.90;;;;;;2097731;28;20190;-70
2022/02/05 06:35:25;;;;;;;4.40;2.43;;;-2.40;99.90;;;;;;2088487;28;20221;-70
2022/02/05 06:36:25;;;;;;;3.33;2.50;;;-2.20;99.90;;;;;;2088285;28;20187;-70
2022/02/05 06:37:26;;;;;;;3.60;2.70;;;-2.20;99.90;;;;;;2097502;28;20750;-70
2022/02/05 06:38:27;;;;;;;6.90;3.10;;;-2.20;99.90;;;;;;2097949;28;20601;-70
2022/02/05 06:39:27;;;;;;;6.17;3.20;;;-2.20;99.90;;;;;;2097222;28;20175;-70
2022/02/05 06:40:28;;;;;;;8.27;3.20;;;-2.20;99.90;;;;;;2097372;28;20236;-69
2022/02/05 06:41:29;;;;;;;6.50;2.87;;;-2.20;99.90;;;;;;2097259;28;20189;-70
2022/02/05 06:42:29;;;;;;;5.40;2.77;;;-2.30;99.90;;;;;;2096958;28;20214;-70
2022/02/05 06:43:30;;;;;;;5.83;2.20;;;-2.30;99.90;;;;;;2097763;28;20187;-70
2022/02/05 06:44:31;;;;;;;3.20;2.37;;;-2.30;99.90;;;;;;2096925;28;20686;-70
2022/02/05 06:45:31;;;;;;;3.27;2.23;;;-2.30;99.90;;;;;;2097216;28;20187;-70
2022/02/05 06:46:32;;;;;;;4.00;2.23;;;-2.40;99.90;;;;;;2097701;28;20179;-70
2022/02/05 06:47:33;;;;;;;4.80;2.13;;;-2.40;99.90;;;;;;2096698;28;20644;-69
2022/02/05 06:48:34;;;;;;;4.78;1.67;;;-2.40;99.90;;;;;;2091422;28;20387;-69
2022/02/05 06:49:35;;;;;;;4.23;2.43;;;-2.40;99.90;;;;;;2092061;28;20190;-70
2022/02/05 06:50:37;;;;;;;3.88;2.40;;;-2.40;99.90;;;;;;2100964;28;20261;-70
2022/02/05 06:51:37;;;;;;;2.85;2.40;;;-2.50;99.90;;;;;;2096896;28;20190;-70
2022/02/05 06:52:40;;;;;;;5.13;2.60;;;-2.40;99.90;;;;;;2093709;28;20173;-70
2022/02/05 06:53:41;;;;;;;3.63;2.40;;;-2.40;99.90;;;;;;2080438;28;20195;-69
2022/02/05 06:54:41;;;;;;;8.83;2.33;;;-2.50;99.90;;;;;;2071757;28;20187;-69
2022/02/05 06:55:42;;;;;;;5.10;2.50;;;-2.50;99.90;;;;;;2080291;28;20187;-70
2022/02/05 06:56:43;;;;;;;5.77;2.80;;;-2.50;99.90;;;;;;2088506;28;20270;-69
2022/02/05 06:57:44;;;;;;;3.87;2.20;;;-2.50;99.90;;;;;;2088437;28;20235;-70
2022/02/05 06:58:44;;;;;;;7.57;3.40;;;-2.40;99.90;;;;;;2080316;28;20193;-70
2022/02/05 06:59:45;;;;;;;4.40;3.00;;;-2.40;99.90;;;;;;2080060;28;20178;-69
2022/02/05 07:00:46;;;;;;;7.47;3.43;;;-2.40;99.90;;;;;;2088613;28;20179;-70
2022/02/05 07:01:46;;;;;;;4.47;3.27;;;-2.50;99.90;;;;;;2088434;28;20631;-69
2022/02/05 07:02:47;;;;;;;14.83;6.90;;;-2.40;99.90;;;;;;2088587;28;20191;-70
2022/02/05 07:03:48;;;;;;;8.17;5.23;;;-2.40;99.90;;;;;;2088508;28;20189;-70
2022/02/05 07:04:48;;;;;;;11.53;4.63;;;-2.30;99.90;;;;;;2088296;28;20403;-70
2022/02/05 07:05:50;;;;;;;8.87;4.63;;;-2.30;99.90;;;;;;2088393;28;20208;-70
2022/02/05 07:06:54;;;;;;;9.60;5.22;;;-2.30;99.90;;;;;;2080463;28;20241;-70
2022/02/05 07:07:55;;;;;;;9.15;5.43;;;-2.30;99.90;;;;;;2080453;28;20203;-69
2022/02/05 07:08:55;;;;;;;8.50;5.77;;;-2.30;99.90;;;;;;2080305;28;20177;-70
2022/02/05 07:09:56;;;;;;;8.57;5.73;;;-2.30;99.90;;;;;;2080055;28;20191;-69
2022/02/05 07:10:57;;;;;;;11.00;6.07;;;-2.30;99.90;;;;;;2088569;28;20257;-70
2022/02/05 07:11:59;;;;;;;10.57;6.07;;;-2.30;99.90;;;;;;2088979;28;20201;-70
2022/02/05 07:13:16;;;;;;;11.52;6.18;;;-2.30;99.90;;;;;;2088401;28;20198;-69
2022/02/05 07:14:19;;;;;;;8.02;4.53;;;-2.30;99.90;;;;;;2088302;28;20163;-71
2022/02/05 07:15:24;;;;;;;6.50;3.85;;;-2.30;99.90;;;;;;2088526;28;20184;-69
2022/02/05 07:16:31;;;;;;;5.20;3.28;;;-2.30;99.90;;;;;;2080920;28;20225;-70
2022/02/05 07:17:46;;;;;;;8.15;3.97;;;-2.20;99.90;;;;;;2088588;28;20191;-70
2022/02/05 07:20:12;;;;;;;6.43;3.53;;;-2.20;99.90;;;;;;2088589;28;20190;-69
2022/02/05 07:21:17;;;;;;;7.57;3.80;;;-2.20;99.90;;;;;;2089308;28;20185;-70
2022/02/05 07:22:18;;;;;;;5.47;3.55;;;-2.20;99.90;;;;;;2079994;28;20757;-69
2022/02/05 07:24:33;;;;;;;6.40;3.27;;;-2.20;99.90;;;;;;2088105;28;20669;-69
2022/02/05 07:29:14;;;;;;;6.18;3.15;;;-2.20;99.90;;;;;;2084914;28;20196;-69